Time;durP1;ratioP1;P1;durP2;ratioP2;P2;SDS_P1;SDS_P2;PMS_P1;PMS_P2;Temp;Humidity;BMP_temperature;BMP_pressure;BME280_temperature;BME280_humidity;BME280_pressure;Samples;Min_cycle;Max_cycle;Signal;HPM_P1;HPM_P2
2023/01/17 00:01:16;;;;;;;1.75;0.80;;;20.20;59.10;;;;;;4981531;28;87315;-81
2023/01/17 00:11:58;;;;;;;4.63;1.15;;;20.10;59.40;;;;;;4990649;28;87935;-81
2023/01/17 00:14:24;;;;;;;6.03;1.15;;;20.10;59.60;;;;;;4987457;28;86901;-81
2023/01/17 00:16:49;;;;;;;0.82;0.73;;;20.10;59.20;;;;;;4986975;28;87282;-81
2023/01/17 01:33:42;;;;;;;1.30;0.90;;;19.60;59.40;;;;;;4985337;28;87252;-81
2023/01/17 01:36:08;;;;;;;1.60;0.90;;;19.60;59.40;;;;;;4982945;28;88041;-81
2023/01/17 01:38:33;;;;;;;1.90;0.80;;;19.60;59.40;;;;;;4990051;28;86994;-81
2023/01/17 01:40:59;;;;;;;1.33;0.70;;;19.60;59.40;;;;;;4991496;28;86967;-81
2023/01/17 01:43:50;;;;;;;1.20;0.80;;;19.60;59.30;;;;;;4985285;28;87613;-81
2023/01/17 01:46:19;;;;;;;2.25;0.95;;;19.60;59.40;;;;;;4988177;28;88227;-80
2023/01/17 01:48:59;;;;;;;1.45;0.73;;;19.60;59.20;;;;;;4985980;28;87058;-82
2023/01/17 01:51:30;;;;;;;0.82;0.57;;;19.50;59.40;;;;;;4983344;28;87605;-81
2023/01/17 01:54:03;;;;;;;0.85;0.63;;;19.50;59.30;;;;;;4981849;28;88205;-81
2023/01/17 01:56:30;;;;;;;1.98;0.88;;;19.50;59.30;;;;;;4980047;28;89384;-81
2023/01/17 01:58:58;;;;;;;1.33;0.70;;;19.50;59.30;;;;;;4986981;28;86880;-81
2023/01/17 02:01:24;;;;;;;1.90;1.02;;;19.50;59.40;;;;;;4988923;28;87343;-81
2023/01/17 02:03:50;;;;;;;2.05;0.88;;;19.50;59.30;;;;;;4984556;28;87644;-81
2023/01/17 02:06:36;;;;;;;1.23;0.73;;;19.50;59.40;;;;;;4987117;28;87785;-81
2023/01/17 02:09:06;;;;;;;1.15;0.60;;;19.50;59.40;;;;;;4997564;28;87477;-81
2023/01/17 02:11:36;;;;;;;1.77;1.05;;;19.40;59.20;;;;;;4980187;28;87474;-81
2023/01/17 02:14:01;;;;;;;0.60;0.60;;;19.40;59.30;;;;;;4979632;28;87757;-81
2023/01/17 02:16:51;;;;;;;0.85;0.73;;;19.40;59.30;;;;;;4985569;28;87789;-81
2023/01/17 02:19:45;;;;;;;1.00;0.73;;;19.40;59.30;;;;;;4982730;28;87872;-81
2023/01/17 02:22:25;;;;;;;0.77;0.50;;;19.40;59.30;;;;;;4981621;28;86982;-81
2023/01/17 02:25:32;;;;;;;0.82;0.70;;;19.40;59.20;;;;;;4984339;28;87342;-80
2023/01/17 02:28:19;;;;;;;0.68;0.60;;;19.40;59.20;;;;;;4967372;28;87526;-82
2023/01/17 02:30:53;;;;;;;0.93;0.68;;;19.40;59.20;;;;;;4969355;28;87450;-80
2023/01/17 02:33:30;;;;;;;1.42;0.80;;;19.40;59.20;;;;;;4955395;28;88909;-81
2023/01/17 02:36:24;;;;;;;1.10;0.77;;;19.30;59.10;;;;;;4972533;28;87429;-81
2023/01/17 02:39:05;;;;;;;1.85;0.60;;;19.30;59.10;;;;;;4973924;28;89323;-81
2023/01/17 02:41:37;;;;;;;0.90;0.60;;;19.30;59.10;;;;;;4971929;28;87385;-81
2023/01/17 02:44:06;;;;;;;0.88;0.75;;;19.30;59.20;;;;;;4972818;28;87450;-81
2023/01/17 02:46:32;;;;;;;0.98;0.60;;;19.20;59.10;;;;;;4969954;28;89584;-81
2023/01/17 02:48:59;;;;;;;0.77;0.70;;;19.20;59.20;;;;;;4975705;28;88925;-81
2023/01/17 02:51:45;;;;;;;1.27;0.70;;;19.30;59.10;;;;;;4975626;28;87329;-81
2023/01/17 02:54:31;;;;;;;0.90;0.77;;;19.30;59.10;;;;;;4975810;28;87615;-81
2023/01/17 02:57:12;;;;;;;1.00;0.77;;;19.20;58.90;;;;;;4973468;28;88414;-81
2023/01/17 03:00:05;;;;;;;1.13;0.68;;;19.20;59.00;;;;;;4975061;28;88070;-81
2023/01/17 03:02:44;;;;;;;1.38;0.75;;;19.20;59.00;;;;;;4974142;28;87282;-81
2023/01/17 03:05:23;;;;;;;1.35;0.90;;;19.20;59.20;;;;;;4982331;28;86686;-81
2023/01/17 03:07:50;;;;;;;1.40;0.90;;;19.20;59.10;;;;;;4986358;28;87252;-81
2023/01/17 03:10:17;;;;;;;1.38;0.90;;;19.20;59.00;;;;;;4986220;28;88191;-81
2023/01/17 03:12:44;;;;;;;1.05;0.70;;;19.20;59.10;;;;;;4984648;28;88131;-81
2023/01/17 03:15:16;;;;;;;1.23;0.55;;;19.20;59.10;;;;;;4987478;28;87654;-81
2023/01/17 03:17:52;;;;;;;1.45;0.80;;;19.20;59.10;;;;;;4987318;28;88377;-81
2023/01/17 03:20:17;;;;;;;0.88;0.70;;;19.20;59.00;;;;;;4979178;28;87524;-81
2023/01/17 03:22:43;;;;;;;0.90;0.70;;;19.10;58.90;;;;;;4984986;28;87094;-81
2023/01/17 03:25:09;;;;;;;1.33;0.80;;;19.10;59.00;;;;;;4984453;28;87199;-81
2023/01/17 03:27:34;;;;;;;1.95;0.80;;;19.10;59.00;;;;;;4984112;28;89779;-81
2023/01/17 03:30:00;;;;;;;0.80;0.70;;;19.10;59.10;;;;;;4986003;28;87745;-81
2023/01/17 03:32:26;;;;;;;0.70;0.65;;;19.10;59.00;;;;;;4987196;28;87287;-82
2023/01/17 03:34:52;;;;;;;1.70;0.57;;;19.10;58.80;;;;;;4984820;28;87463;-81
2023/01/17 03:37:18;;;;;;;1.15;0.80;;;19.10;58.80;;;;;;4982835;28;89508;-81
2023/01/17 03:39:43;;;;;;;2.13;0.90;;;19.10;58.90;;;;;;4989198;28;88737;-80
2023/01/17 03:42:10;;;;;;;1.58;0.80;;;19.10;59.00;;;;;;4983158;28;87195;-81
2023/01/17 03:44:36;;;;;;;0.93;0.60;;;19.10;59.00;;;;;;4980891;28;87590;-81
2023/01/17 03:47:02;;;;;;;1.25;0.80;;;19.10;59.00;;;;;;4993775;28;87511;-81
2023/01/17 03:49:28;;;;;;;0.90;0.60;;;19.10;59.00;;;;;;4988644;28;91554;-81
2023/01/17 03:51:53;;;;;;;0.80;0.70;;;19.00;58.90;;;;;;4986003;28;87259;-81
2023/01/17 03:54:19;;;;;;;1.30;0.80;;;19.00;59.00;;;;;;4987254;28;86566;-80
2023/01/17 03:56:44;;;;;;;0.98;0.73;;;19.10;58.80;;;;;;4986575;28;88018;-80
2023/01/17 03:59:10;;;;;;;1.65;0.70;;;19.10;58.80;;;;;;4990301;28;87887;-81
2023/01/17 04:01:36;;;;;;;0.60;0.60;;;19.00;58.80;;;;;;4988817;28;88406;-81
2023/01/17 04:04:01;;;;;;;0.80;0.57;;;19.00;58.90;;;;;;4986658;28;87321;-81
2023/01/17 04:06:27;;;;;;;0.75;0.50;;;19.00;58.90;;;;;;4982407;28;88220;-81
2023/01/17 04:08:53;;;;;;;0.90;0.60;;;19.00;58.80;;;;;;4985719;28;87756;-81
2023/01/17 04:11:23;;;;;;;0.65;0.65;;;19.00;58.80;;;;;;4989751;28;87593;-82
2023/01/17 04:13:49;;;;;;;1.58;0.70;;;19.00;58.90;;;;;;4991656;28;86841;-80
2023/01/17 04:16:16;;;;;;;2.20;1.17;;;19.00;58.90;;;;;;4994042;28;87144;-81
2023/01/17 04:18:42;;;;;;;1.08;0.65;;;19.00;58.80;;;;;;4985567;28;87989;-81
2023/01/17 04:21:08;;;;;;;0.93;0.70;;;18.90;58.80;;;;;;4986127;28;87144;-81
2023/01/17 04:23:34;;;;;;;1.23;0.73;;;18.90;58.70;;;;;;4986278;28;87163;-81
2023/01/17 04:26:00;;;;;;;1.15;0.60;;;18.90;58.80;;;;;;4986759;28;89241;-81
2023/01/17 04:28:25;;;;;;;1.05;0.70;;;18.90;58.80;;;;;;4982858;28;89116;-81
2023/01/17 04:30:51;;;;;;;0.80;0.68;;;18.90;58.80;;;;;;4988778;28;86850;-81
2023/01/17 04:33:17;;;;;;;0.95;0.70;;;18.90;58.70;;;;;;4984755;28;86907;-81
2023/01/17 04:35:43;;;;;;;1.02;0.75;;;18.90;58.90;;;;;;4988420;28;87176;-81
2023/01/17 04:38:08;;;;;;;1.15;0.73;;;18.90;58.90;;;;;;4983669;28;87520;-81
2023/01/17 04:40:34;;;;;;;0.75;0.60;;;18.90;58.80;;;;;;4988861;28;86961;-81
2023/01/17 04:43:00;;;;;;;1.17;0.77;;;18.90;58.70;;;;;;4986212;28;87012;-81
2023/01/17 04:45:25;;;;;;;1.48;0.90;;;18.80;58.70;;;;;;4980528;28;87408;-81
2023/01/17 04:47:51;;;;;;;1.70;1.00;;;18.80;58.70;;;;;;4993360;28;87833;-81
2023/01/17 04:50:17;;;;;;;1.05;0.80;;;18.80;58.70;;;;;;4984577;28;87845;-81
2023/01/17 04:52:42;;;;;;;0.70;0.50;;;18.80;58.70;;;;;;4989419;28;87618;-81
2023/01/17 04:55:08;;;;;;;0.93;0.60;;;18.80;58.70;;;;;;4989922;28;87119;-81
2023/01/17 04:57:34;;;;;;;0.82;0.65;;;18.80;58.60;;;;;;4984488;28;87658;-81
2023/01/17 04:59:59;;;;;;;0.73;0.70;;;18.80;58.70;;;;;;4984373;28;87458;-82
2023/01/17 05:02:25;;;;;;;1.30;0.85;;;18.80;58.80;;;;;;4985828;28;87685;-81
2023/01/17 05:04:51;;;;;;;0.80;0.70;;;18.80;59.40;;;;;;4984636;28;88236;-81
2023/01/17 05:07:16;;;;;;;1.20;0.60;;;18.80;58.70;;;;;;4990409;28;87232;-81
2023/01/17 05:09:42;;;;;;;1.15;0.60;;;18.80;58.70;;;;;;4982895;28;87186;-81
2023/01/17 05:12:08;;;;;;;0.60;0.60;;;18.80;58.70;;;;;;4982444;28;87167;-80
2023/01/17 05:14:34;;;;;;;0.68;0.50;;;18.80;58.70;;;;;;4986706;28;88583;-81
2023/01/17 05:17:01;;;;;;;0.85;0.70;;;18.70;58.50;;;;;;4983618;28;89002;-81
2023/01/17 05:19:27;;;;;;;1.73;0.60;;;18.70;58.60;;;;;;4982985;28;86972;-81
2023/01/17 05:21:53;;;;;;;0.65;0.60;;;18.70;58.70;;;;;;4982318;28;86996;-81
2023/01/17 05:24:19;;;;;;;1.38;0.93;;;18.70;58.60;;;;;;4984603;28;87903;-81
2023/01/17 05:26:53;;;;;;;0.75;0.57;;;18.70;58.60;;;;;;4985556;28;87768;-81
2023/01/17 05:29:20;;;;;;;0.75;0.70;;;18.70;58.60;;;;;;4985298;28;87180;-81
2023/01/17 05:31:45;;;;;;;0.75;0.65;;;18.60;58.60;;;;;;4986396;28;86983;-81
2023/01/17 05:34:11;;;;;;;1.08;0.80;;;18.70;58.60;;;;;;4983237;28;87954;-81
2023/01/17 05:36:36;;;;;;;2.10;1.15;;;18.70;58.70;;;;;;4984459;28;88230;-81
2023/01/17 05:39:02;;;;;;;1.05;0.70;;;18.60;58.70;;;;;;4985968;28;87994;-80
2023/01/17 05:41:28;;;;;;;0.80;0.77;;;18.70;58.70;;;;;;4978900;28;87053;-81
2023/01/17 05:43:53;;;;;;;1.00;0.70;;;18.60;58.50;;;;;;4987634;28;88051;-81
2023/01/17 05:46:19;;;;;;;1.00;0.90;;;18.70;58.60;;;;;;4982953;28;87733;-81
2023/01/17 05:48:44;;;;;;;0.82;0.80;;;18.60;58.60;;;;;;4984283;28;86949;-81
2023/01/17 05:51:10;;;;;;;0.93;0.70;;;18.60;58.70;;;;;;4988157;28;87446;-81
2023/01/17 05:53:36;;;;;;;0.65;0.65;;;18.60;58.70;;;;;;4984584;28;87683;-81
2023/01/17 05:56:01;;;;;;;1.10;0.70;;;18.60;58.70;;;;;;4989535;28;87784;-81
2023/01/17 05:58:27;;;;;;;2.50;0.73;;;18.60;58.80;;;;;;4981223;28;86938;-80
2023/01/17 06:00:54;;;;;;;2.47;1.08;;;18.70;58.50;;;;;;4981656;28;86986;-80
2023/01/17 06:03:19;;;;;;;3.05;0.82;;;18.90;58.00;;;;;;4981741;28;89089;-80
2023/01/17 06:05:46;;;;;;;2.35;0.80;;;19.00;57.50;;;;;;4980534;28;89247;-80
2023/01/17 06:08:12;;;;;;;0.80;0.70;;;19.10;57.40;;;;;;4982308;28;87210;-80
2023/01/17 06:10:38;;;;;;;3.00;1.00;;;19.30;57.50;;;;;;4976008;28;86956;-81
2023/01/17 06:13:06;;;;;;;2.03;1.10;;;19.40;57.10;;;;;;4986753;28;87347;-80
2023/01/17 06:15:33;;;;;;;5.68;1.15;;;19.40;57.10;;;;;;4987672;28;87768;-80
2023/01/17 06:18:06;;;;;;;5.15;1.30;;;19.60;57.00;;;;;;4981257;28;86977;-80
2023/01/17 06:20:32;;;;;;;3.25;0.73;;;19.70;56.40;;;;;;4981248;28;86443;-80
2023/01/17 06:23:08;;;;;;;0.75;0.65;;;19.80;56.80;;;;;;4993203;28;89180;-81
2023/01/17 06:25:44;;;;;;;3.30;1.55;;;19.80;56.80;;;;;;4990230;28;92861;-80
2023/01/17 06:28:12;;;;;;;2.17;1.10;;;19.90;56.50;;;;;;4986105;28;87838;-81
2023/01/17 06:30:38;;;;;;;1.30;0.85;;;19.90;56.40;;;;;;4993959;28;87130;-81
2023/01/17 06:33:04;;;;;;;1.35;0.98;;;19.90;56.50;;;;;;4989222;28;90099;-81
2023/01/17 06:35:30;;;;;;;3.80;1.60;;;19.90;56.90;;;;;;4984534;28;88267;-81
2023/01/17 06:37:57;;;;;;;6.13;1.60;;;19.90;56.10;;;;;;4991414;28;86952;-81
2023/01/17 06:40:24;;;;;;;4.07;1.25;;;19.80;56.80;;;;;;4987808;28;93854;-81
2023/01/17 06:42:49;;;;;;;3.90;1.75;;;19.70;57.40;;;;;;4982818;28;87831;-81
2023/01/17 06:45:15;;;;;;;5.18;1.15;;;19.60;56.80;;;;;;4991203;28;87632;-81
2023/01/17 06:47:41;;;;;;;1.65;1.38;;;19.60;57.50;;;;;;4990891;28;87546;-80
2023/01/17 06:50:10;;;;;;;4.30;1.30;;;19.50;57.30;;;;;;4990943;28;87297;-80
2023/01/17 06:52:35;;;;;;;5.90;1.20;;;19.50;57.70;;;;;;4988843;28;89238;-80
2023/01/17 06:55:01;;;;;;;4.25;1.23;;;19.60;57.40;;;;;;4981254;28;90861;-80
2023/01/17 06:57:27;;;;;;;7.40;1.60;;;19.50;57.50;;;;;;4981362;28;87560;-80
2023/01/17 06:59:53;;;;;;;5.75;1.38;;;19.50;57.80;;;;;;4985289;28;87400;-80
2023/01/17 07:02:18;;;;;;;2.38;1.10;;;19.40;57.80;;;;;;4985838;28;88423;-81
2023/01/17 07:04:44;;;;;;;2.20;1.10;;;19.40;57.80;;;;;;4986207;28;87562;-81
2023/01/17 07:07:09;;;;;;;4.25;1.50;;;19.40;57.80;;;;;;4993753;28;86989;-82
2023/01/17 07:09:35;;;;;;;6.07;1.60;;;19.30;57.80;;;;;;4986453;28;86764;-81
2023/01/17 07:12:01;;;;;;;7.93;1.30;;;19.50;56.80;;;;;;4982384;28;88540;-80
2023/01/17 07:14:30;;;;;;;4.70;1.55;;;19.50;56.90;;;;;;4984601;28;88004;-81
2023/01/17 07:16:56;;;;;;;6.20;1.50;;;19.40;57.10;;;;;;4984759;28;88184;-81
2023/01/17 07:19:22;;;;;;;32.05;6.72;;;19.40;57.10;;;;;;4990591;28;86982;-81
2023/01/17 07:21:52;;;;;;;8.25;2.35;;;19.30;56.40;;;;;;4989292;28;87819;-81
2023/01/17 07:24:19;;;;;;;12.65;3.10;;;19.30;56.80;;;;;;4980461;28;87609;-81
2023/01/17 07:26:51;;;;;;;18.50;3.75;;;19.30;57.00;;;;;;4993913;28;87364;-81
2023/01/17 07:29:17;;;;;;;27.25;6.50;;;19.30;57.10;;;;;;4989366;28;87212;-80
2023/01/17 07:31:43;;;;;;;30.95;7.00;;;19.30;56.50;;;;;;4988332;28;88069;-81
2023/01/17 07:34:09;;;;;;;20.25;5.15;;;19.30;56.00;;;;;;4987646;28;88415;-80
2023/01/17 07:36:35;;;;;;;31.13;6.75;;;19.40;56.80;;;;;;4979475;28;87037;-80
2023/01/17 07:39:01;;;;;;;23.13;6.15;;;19.60;55.50;;;;;;4978827;28;87371;-83
2023/01/17 07:41:29;;;;;;;18.67;5.60;;;19.70;55.90;;;;;;4985603;28;89267;-81
2023/01/17 07:43:58;;;;;;;20.70;4.93;;;19.90;55.80;;;;;;4987542;28;89274;-81
2023/01/17 07:46:23;;;;;;;22.93;5.37;;;20.00;55.20;;;;;;4983505;28;87227;-81
2023/01/17 07:48:49;;;;;;;18.88;4.97;;;20.10;55.30;;;;;;4991194;28;87291;-80
2023/01/17 07:51:16;;;;;;;24.80;6.00;;;20.10;54.40;;;;;;4920542;28;88715;-81
2023/01/17 07:53:42;;;;;;;20.60;5.32;;;20.30;54.10;;;;;;4991261;28;87899;-81
2023/01/17 07:56:07;;;;;;;17.20;5.30;;;20.20;53.50;;;;;;4998123;28;86949;-81
2023/01/17 07:58:34;;;;;;;20.85;5.88;;;20.30;52.90;;;;;;4984479;28;86814;-80
2023/01/17 08:01:02;;;;;;;17.75;5.40;;;20.30;53.10;;;;;;4983320;28;88589;-80
2023/01/17 08:03:31;;;;;;;15.10;5.68;;;20.20;52.90;;;;;;4990627;28;87980;-80
2023/01/17 08:05:57;;;;;;;16.02;4.57;;;20.20;53.00;;;;;;4982404;28;89151;-80
2023/01/17 08:08:23;;;;;;;19.17;4.90;;;20.20;53.40;;;;;;4987937;28;87439;-80
2023/01/17 08:10:50;;;;;;;13.07;4.60;;;20.20;53.00;;;;;;4982582;28;87589;-80
2023/01/17 08:13:16;;;;;;;17.05;4.75;;;20.10;53.40;;;;;;4979324;28;87523;-80
2023/01/17 08:15:41;;;;;;;16.45;5.45;;;20.10;53.60;;;;;;4988251;28;86790;-80
2023/01/17 08:18:07;;;;;;;11.18;4.07;;;20.00;53.70;;;;;;4979493;28;90020;-80
2023/01/17 08:20:33;;;;;;;14.90;5.13;;;20.00;53.60;;;;;;4993015;28;88016;-79
2023/01/17 08:22:58;;;;;;;12.65;4.50;;;19.90;53.90;;;;;;4995496;28;87732;-81
2023/01/17 08:25:25;;;;;;;18.50;5.18;;;19.90;53.40;;;;;;4980588;28;87265;-79
2023/01/17 08:27:55;;;;;;;16.10;5.13;;;19.90;54.20;;;;;;4985788;28;87371;-80
2023/01/17 08:30:21;;;;;;;18.40;5.68;;;19.90;55.00;;;;;;4993534;28;89057;-79
2023/01/17 08:32:46;;;;;;;19.08;5.35;;;20.00;52.90;;;;;;4985555;28;89098;-80
2023/01/17 08:35:12;;;;;;;15.20;4.68;;;20.00;53.40;;;;;;4986483;28;86966;-79
2023/01/17 08:37:38;;;;;;;15.70;4.57;;;19.90;53.60;;;;;;4986965;28;86954;-80
2023/01/17 08:40:05;;;;;;;16.27;5.10;;;19.90;53.50;;;;;;4984715;28;88133;-79
2023/01/17 08:42:36;;;;;;;15.85;5.00;;;19.90;54.30;;;;;;4986988;28;88074;-80
2023/01/17 08:45:03;;;;;;;12.63;4.28;;;19.90;53.30;;;;;;4992437;28;87488;-80
2023/01/17 08:47:30;;;;;;;14.05;4.30;;;19.80;53.90;;;;;;4984614;28;87539;-79
2023/01/17 08:49:58;;;;;;;12.43;4.03;;;19.80;54.30;;;;;;4985310;28;89720;-81
2023/01/17 08:52:24;;;;;;;13.88;4.13;;;19.90;54.20;;;;;;4984887;28;90560;-80
2023/01/17 08:54:50;;;;;;;11.30;4.18;;;20.00;52.90;;;;;;4983964;28;88250;-79
2023/01/17 08:57:16;;;;;;;15.27;4.43;;;19.90;52.80;;;;;;4978618;28;87323;-79
2023/01/17 08:59:42;;;;;;;15.07;4.63;;;19.90;54.10;;;;;;4989607;28;87668;-80
2023/01/17 09:02:23;;;;;;;14.23;4.15;;;19.90;54.10;;;;;;4983045;28;88821;-80
2023/01/17 09:04:49;;;;;;;19.10;4.60;;;19.80;54.30;;;;;;4988464;28;87275;-81
2023/01/17 09:07:16;;;;;;;15.90;4.25;;;19.80;54.90;;;;;;4986698;28;89855;-82
2023/01/17 09:09:42;;;;;;;16.88;4.25;;;19.80;54.20;;;;;;4989425;28;88441;-82
2023/01/17 09:12:07;;;;;;;16.88;4.28;;;19.80;54.70;;;;;;4988353;28;87349;-82
2023/01/17 09:14:34;;;;;;;15.23;4.85;;;19.70;54.80;;;;;;4985860;28;86949;-81
2023/01/17 09:17:00;;;;;;;15.85;4.18;;;19.80;53.90;;;;;;4991578;28;88749;-80
2023/01/17 09:19:26;;;;;;;11.85;4.13;;;19.80;54.00;;;;;;4981872;28;90591;-80
2023/01/17 09:21:52;;;;;;;11.98;4.18;;;19.80;53.90;;;;;;4989349;28;88043;-79
2023/01/17 09:24:18;;;;;;;11.18;4.00;;;19.80;54.30;;;;;;4980896;28;87020;-80
2023/01/17 09:26:43;;;;;;;13.25;4.10;;;19.80;53.60;;;;;;4985150;28;87244;-80
2023/01/17 09:29:10;;;;;;;9.18;3.60;;;19.90;53.90;;;;;;4980803;28;87174;-81
2023/01/17 09:31:36;;;;;;;11.88;4.20;;;19.90;53.70;;;;;;4980793;28;88384;-81
2023/01/17 09:34:01;;;;;;;8.52;3.08;;;19.90;54.30;;;;;;4986551;28;87545;-80
2023/01/17 09:36:27;;;;;;;15.90;4.70;;;19.80;55.20;;;;;;4988475;28;86833;-79
2023/01/17 09:39:00;;;;;;;11.57;4.00;;;19.80;54.40;;;;;;4983533;28;87558;-80
2023/01/17 09:41:43;;;;;;;14.27;4.35;;;19.80;54.50;;;;;;4982253;28;87872;-80
2023/01/17 09:44:14;;;;;;;9.82;4.03;;;19.80;54.40;;;;;;4984122;28;88118;-80
2023/01/17 09:46:46;;;;;;;9.73;3.80;;;19.80;54.20;;;;;;4982981;28;86897;-80
2023/01/17 09:49:17;;;;;;;15.10;4.70;;;19.90;52.90;;;;;;4985510;28;88592;-81
2023/01/17 09:51:43;;;;;;;14.63;4.88;;;20.00;52.20;;;;;;4977084;28;87897;-80
2023/01/17 09:54:23;;;;;;;12.00;5.15;;;19.90;52.20;;;;;;4986187;28;86854;-79
2023/01/17 09:57:45;;;;;;;21.77;5.20;;;19.90;52.00;;;;;;4988312;28;88916;-80
2023/01/17 10:00:35;;;;;;;16.00;4.15;;;19.90;51.50;;;;;;4967994;28;87632;-80
2023/01/17 10:03:17;;;;;;;9.88;4.40;;;19.90;52.70;;;;;;4966714;28;88882;-79
2023/01/17 10:06:00;;;;;;;12.45;4.90;;;19.90;52.90;;;;;;4971320;28;87499;-80
2023/01/17 10:08:37;;;;;;;13.77;4.78;;;19.90;50.00;;;;;;4966951;28;87511;-80
2023/01/17 10:11:26;;;;;;;14.50;4.82;;;19.90;50.50;;;;;;4961284;28;91345;-79
2023/01/17 10:14:19;;;;;;;16.90;5.15;;;19.90;51.40;;;;;;4969984;28;89578;-80
2023/01/17 10:16:58;;;;;;;12.65;4.63;;;20.00;50.80;;;;;;4972552;28;87516;-81
2023/01/17 10:19:24;;;;;;;;;;;20.10;50.60;;;;;;4970873;28;88820;-81
2023/01/17 10:22:09;;;;;;;10.90;4.15;;;20.20;51.20;;;;;;4973579;28;87211;-81
2023/01/17 10:25:00;;;;;;;14.52;4.53;;;20.20;51.40;;;;;;4971939;28;87056;-81
2023/01/17 10:27:36;;;;;;;13.10;4.30;;;20.20;51.40;;;;;;4971331;28;87025;-81
2023/01/17 10:30:14;;;;;;;13.30;3.92;;;20.30;51.40;;;;;;4968371;28;87514;-79
2023/01/17 10:32:46;;;;;;;14.93;4.33;;;20.30;52.00;;;;;;4966951;28;88863;-79
2023/01/17 10:35:32;;;;;;;12.77;3.83;;;20.40;51.10;;;;;;4972248;28;88473;-80
2023/01/17 10:38:00;;;;;;;15.98;4.53;;;20.40;52.50;;;;;;4983347;28;88373;-80
2023/01/17 10:40:39;;;;;;;11.82;4.15;;;20.40;52.00;;;;;;4986747;28;87450;-80
2023/01/17 10:43:18;;;;;;;13.38;4.20;;;20.30;52.40;;;;;;4980896;28;88976;-80
2023/01/17 10:45:52;;;;;;;8.70;3.70;;;20.30;52.80;;;;;;4983650;28;87912;-81
2023/01/17 10:48:23;;;;;;;10.70;3.92;;;20.20;52.60;;;;;;4988394;28;88246;-80
2023/01/17 10:50:57;;;;;;;11.88;4.10;;;20.20;52.90;;;;;;4983003;28;87158;-80
2023/01/17 10:53:36;;;;;;;13.65;5.05;;;20.20;53.00;;;;;;4984242;28;88217;-79
2023/01/17 10:56:03;;;;;;;7.67;3.23;;;20.20;52.00;;;;;;4985912;28;87647;-79
2023/01/17 10:58:30;;;;;;;12.15;3.47;;;20.20;53.10;;;;;;4983055;28;87183;-79
2023/01/17 11:01:15;;;;;;;10.23;4.00;;;20.20;53.30;;;;;;4984736;28;87592;-79
2023/01/17 11:03:43;;;;;;;11.65;4.20;;;20.20;53.60;;;;;;4986155;28;88608;-79
2023/01/17 11:06:23;;;;;;;11.82;4.40;;;20.30;53.90;;;;;;4988563;28;87861;-79
2023/01/17 11:08:55;;;;;;;;;;;20.40;53.60;;;;;;4979549;28;86913;-79
2023/01/17 11:11:30;;;;;;;9.02;3.47;;;20.40;53.50;;;;;;4982328;28;87537;-79
2023/01/17 11:14:06;;;;;;;11.27;3.90;;;20.50;53.00;;;;;;4985900;28;87603;-80
2023/01/17 11:16:32;;;;;;;26.63;8.93;;;20.60;51.70;;;;;;4985390;28;91277;-80
2023/01/17 11:19:35;;;;;;;26.00;9.32;;;20.60;51.10;;;;;;4983143;28;87032;-80
2023/01/17 11:22:03;;;;;;;10.75;4.82;;;20.50;50.60;;;;;;4958849;28;87440;-79
2023/01/17 11:24:46;;;;;;;15.93;5.67;;;20.60;50.40;;;;;;4968327;28;87593;-79
2023/01/17 11:27:38;;;;;;;13.85;5.60;;;20.50;49.90;;;;;;4974004;28;87613;-81
2023/01/17 11:30:15;;;;;;;11.13;4.40;;;20.40;50.10;;;;;;4972293;28;88413;-81
2023/01/17 11:32:57;;;;;;;11.55;4.88;;;20.50;50.10;;;;;;4976880;28;87204;-81
2023/01/17 11:35:29;;;;;;;8.98;4.25;;;20.60;49.50;;;;;;4974639;28;88993;-80
2023/01/17 11:38:01;;;;;;;12.32;4.88;;;20.60;50.00;;;;;;4973580;28;87671;-81
2023/01/17 11:40:40;;;;;;;12.88;4.75;;;20.60;49.00;;;;;;4974303;28;87431;-81
2023/01/17 11:43:13;;;;;;;15.40;5.05;;;20.70;50.00;;;;;;4975825;28;87307;-81
2023/01/17 11:45:39;;;;;;;11.65;5.22;;;20.70;49.90;;;;;;4969790;28;87871;-81
2023/01/17 11:48:11;;;;;;;13.43;4.25;;;20.70;50.70;;;;;;4974641;28;87384;-81
2023/01/17 11:50:57;;;;;;;15.20;4.22;;;20.70;51.00;;;;;;4971725;28;87316;-80
2023/01/17 11:53:36;;;;;;;11.43;4.55;;;20.70;51.00;;;;;;4963198;28;90550;-81
2023/01/17 11:56:05;;;;;;;;;;;20.70;51.50;;;;;;4977222;28;88777;-82
2023/01/17 11:58:33;;;;;;;11.30;4.18;;;20.70;51.00;;;;;;4987588;28;92019;-81
2023/01/17 12:01:04;;;;;;;13.57;4.35;;;20.70;51.30;;;;;;4987259;28;87331;-81
2023/01/17 12:03:45;;;;;;;11.80;4.18;;;20.70;51.50;;;;;;4991240;28;87256;-81
2023/01/17 12:06:34;;;;;;;13.48;4.30;;;20.60;52.20;;;;;;4971278;28;88275;-81
2023/01/17 12:09:10;;;;;;;14.95;4.72;;;20.60;52.80;;;;;;4985596;28;87709;-81
2023/01/17 12:15:01;;;;;;;15.52;4.72;;;20.50;53.60;;;;;;4982554;28;86292;-81
2023/01/17 12:17:38;;;;;;;14.80;5.10;;;20.50;53.90;;;;;;4980414;28;88669;-81
2023/01/17 12:20:16;;;;;;;13.82;4.40;;;20.50;54.80;;;;;;4983557;28;87725;-81
2023/01/17 12:23:24;;;;;;;14.00;4.80;;;20.50;54.90;;;;;;4988587;28;88028;-81
2023/01/17 12:26:18;;;;;;;14.02;5.20;;;20.50;55.40;;;;;;4994753;28;89949;-83
2023/01/17 12:29:00;;;;;;;15.68;4.47;;;20.50;55.50;;;;;;4978918;28;92523;-82
2023/01/17 12:31:26;;;;;;;12.85;3.90;;;20.50;55.30;;;;;;4984114;28;87505;-81
2023/01/17 12:34:15;;;;;;;15.50;4.88;;;20.60;55.20;;;;;;4987720;28;86893;-84
2023/01/17 12:36:47;;;;;;;15.73;4.65;;;20.50;54.60;;;;;;4991108;28;86936;-85
2023/01/17 12:39:16;;;;;;;18.05;5.90;;;20.50;55.00;;;;;;4985309;28;87549;-83
2023/01/17 12:42:03;;;;;;;16.85;4.88;;;20.40;52.70;;;;;;4991604;28;87959;-83
2023/01/17 12:44:44;;;;;;;22.25;4.78;;;20.40;53.90;;;;;;4993322;28;86854;-83
2023/01/17 12:47:12;;;;;;;21.60;5.43;;;20.30;55.30;;;;;;4985245;28;89575;-84
2023/01/17 12:49:45;;;;;;;12.35;4.90;;;20.10;55.40;;;;;;4993713;28;89161;-83
2023/01/17 12:52:23;;;;;;;12.80;4.72;;;20.00;55.70;;;;;;4984297;28;89085;-84
2023/01/17 12:55:14;;;;;;;14.18;4.10;;;19.90;55.80;;;;;;4992449;28;87273;-84
2023/01/17 12:57:45;;;;;;;17.45;4.93;;;19.90;56.00;;;;;;4994450;28;89014;-84
2023/01/17 13:00:21;;;;;;;14.90;4.93;;;19.90;56.10;;;;;;4991976;28;88588;-84
2023/01/17 13:03:02;;;;;;;15.13;4.60;;;19.90;56.10;;;;;;4986011;28;89749;-84
2023/01/17 13:05:39;;;;;;;17.92;5.13;;;19.90;56.30;;;;;;4988062;28;87255;-83
2023/01/17 13:08:42;;;;;;;16.52;4.65;;;19.90;56.30;;;;;;4985109;28;87642;-83
2023/01/17 13:11:27;;;;;;;12.65;4.13;;;20.00;56.30;;;;;;4989480;28;88915;-83
2023/01/17 13:14:01;;;;;;;15.23;4.55;;;20.00;56.20;;;;;;4982016;28;87763;-84
2023/01/17 13:16:37;;;;;;;14.93;4.35;;;20.00;56.30;;;;;;4985822;28;88172;-83
2023/01/17 13:19:16;;;;;;;13.07;4.22;;;20.10;55.90;;;;;;4989038;28;87067;-83
2023/01/17 13:21:43;;;;;;;17.27;4.55;;;20.20;55.60;;;;;;4989944;28;87640;-83
2023/01/17 13:24:26;;;;;;;12.25;4.45;;;20.30;55.40;;;;;;4987426;28;88448;-83
2023/01/17 13:26:55;;;;;;;13.35;3.60;;;20.20;55.30;;;;;;4990467;28;87207;-83
2023/01/17 13:29:54;;;;;;;11.43;3.60;;;20.30;55.40;;;;;;4981764;28;87370;-83
2023/01/17 13:32:38;;;;;;;;;;;20.30;55.30;;;;;;4990739;28;88171;-82
2023/01/17 13:35:21;;;;;;;14.90;4.45;;;20.20;55.30;;;;;;4986601;28;86297;-82
2023/01/17 13:37:56;;;;;;;10.60;4.00;;;20.20;55.50;;;;;;4992429;28;86932;-82
2023/01/17 13:40:32;;;;;;;11.20;4.05;;;20.20;55.60;;;;;;4987682;28;87883;-83
2023/01/17 13:43:00;;;;;;;12.00;4.28;;;20.20;55.70;;;;;;4984044;28;89529;-83
2023/01/17 13:45:34;;;;;;;11.27;3.95;;;20.20;55.70;;;;;;4981334;28;90763;-83
2023/01/17 13:48:13;;;;;;;12.75;4.68;;;20.10;55.70;;;;;;4985792;28;87288;-83
2023/01/17 13:50:49;;;;;;;11.87;4.43;;;20.10;55.80;;;;;;4991709;28;88173;-82
2023/01/17 13:53:33;;;;;;;11.65;3.92;;;20.10;55.60;;;;;;4985455;28;89249;-83
2023/01/17 13:56:13;;;;;;;8.25;3.55;;;20.10;55.50;;;;;;4987683;28;88398;-82
2023/01/17 13:58:53;;;;;;;10.98;3.83;;;20.20;55.80;;;;;;4986189;28;87805;-82
2023/01/17 14:01:21;;;;;;;10.60;4.00;;;20.20;55.40;;;;;;4989068;28;87492;-84
2023/01/17 14:03:50;;;;;;;11.85;4.22;;;20.20;55.50;;;;;;4985610;28;88492;-83
2023/01/17 14:06:34;;;;;;;11.05;3.83;;;20.30;54.00;;;;;;4980528;28;87507;-85
2023/01/17 14:09:41;;;;;;;10.43;3.70;;;20.40;54.00;;;;;;4960261;28;88121;-84
2023/01/17 14:12:10;;;;;;;11.30;3.88;;;20.50;53.90;;;;;;4942178;28;87127;-85
2023/01/17 14:14:44;;;;;;;7.25;3.38;;;20.50;53.90;;;;;;4949781;28;89634;-84
2023/01/17 14:17:15;;;;;;;13.10;3.72;;;20.50;54.10;;;;;;4952120;28;87953;-84
2023/01/17 14:19:42;;;;;;;12.07;3.78;;;20.70;54.40;;;;;;4954927;28;87531;-85
2023/01/17 14:22:26;;;;;;;10.82;3.33;;;20.80;53.60;;;;;;4952606;28;87005;-84
2023/01/17 14:25:08;;;;;;;9.90;3.80;;;20.80;53.80;;;;;;4955146;28;87446;-85
2023/01/17 14:27:41;;;;;;;9.48;3.22;;;20.90;53.40;;;;;;4950039;28;90811;-85
2023/01/17 14:30:16;;;;;;;12.60;3.25;;;20.90;53.60;;;;;;4953889;28;87018;-86
2023/01/17 14:33:00;;;;;;;12.70;3.53;;;21.00;53.20;;;;;;4947339;28;88125;-85